Edinboro, Pennsylvania
Current Conditions -  °F | °C
As of 4:51 AM on Sunday 23 Nov 2014 (Local Time) from KERI Reporting Station
Overcast Overcast  
Wind Chill:   Ceiling: 4800
Heat Index:   Visibility: 10mi
Dew Point:   Wind: 13mph
Humidity: 52%   Direction: 200°SSW
Pressure: 30.02"   Gusts: NA
Location:  41.88°N, 80.13°W
Report Text: KERI 230951Z 20011KT 10SM OVC048 09/00 A3002 RMK AO2 SLP167 T00940000
Loading
Personal Weather Stations






























Interactive Weather Map New forecast layout! Learn more

10-Day Weather Forecast

Advertisements
Track Severe Weather on mobile